Time;durP1;ratioP1;P1;durP2;ratioP2;P2;SDS_P1;SDS_P2;PMS_P1;PMS_P2;Temp;Humidity;BMP_temperature;BMP_pressure;BME280_temperature;BME280_humidity;BME280_pressure;Samples;Min_cycle;Max_cycle;Signal;HPM_P1;HPM_P2
2023/10/03 00:00:31;;;;;;;41.20;22.60;;;18.30;71.80;;;;;;5066822;28;20434;-74
2023/10/03 00:02:57;;;;;;;40.75;22.60;;;18.30;72.30;;;;;;5069200;28;20407;-73
2023/10/03 00:05:28;;;;;;;39.17;22.48;;;18.30;72.60;;;;;;5068972;28;20395;-73
2023/10/03 00:07:55;;;;;;;38.70;22.02;;;18.30;72.30;;;;;;5069356;28;20411;-73
2023/10/03 00:10:21;;;;;;;37.13;22.02;;;18.30;72.30;;;;;;5067981;28;20407;-73
2023/10/03 00:12:48;;;;;;;37.58;22.40;;;18.30;72.60;;;;;;5084550;28;20413;-73
2023/10/03 00:15:32;;;;;;;36.47;21.80;;;18.30;72.70;;;;;;5050943;28;20403;-73
2023/10/03 00:17:58;;;;;;;37.28;21.52;;;18.30;72.50;;;;;;5067169;28;20407;-73
2023/10/03 00:20:24;;;;;;;35.55;20.42;;;18.30;71.90;;;;;;5068301;28;20434;-73
2023/10/03 00:22:50;;;;;;;39.17;22.27;;;18.30;72.10;;;;;;5068338;28;20417;-73
2023/10/03 00:25:18;;;;;;;38.03;20.93;;;18.30;72.10;;;;;;5068631;28;20400;-73
2023/10/03 00:27:49;;;;;;;39.92;22.33;;;18.30;71.90;;;;;;5068448;28;20427;-73
2023/10/03 00:30:16;;;;;;;39.08;22.30;;;18.30;71.50;;;;;;5068659;28;20396;-73
2023/10/03 00:32:42;;;;;;;37.42;22.17;;;18.30;71.60;;;;;;5068694;28;20379;-73
2023/10/03 00:35:08;;;;;;;38.08;22.05;;;18.20;71.10;;;;;;5068149;28;20489;-74
2023/10/03 00:37:38;;;;;;;37.20;22.30;;;18.30;71.50;;;;;;5068190;28;20431;-73
2023/10/03 00:42:49;;;;;;;40.58;22.80;;;18.20;71.20;;;;;;5067400;28;20446;-73
2023/10/03 00:45:22;;;;;;;39.63;22.95;;;18.20;71.10;;;;;;5066997;28;20419;-73
2023/10/03 00:47:48;;;;;;;39.30;23.48;;;18.20;71.00;;;;;;5067798;28;20487;-74
2023/10/03 00:50:20;;;;;;;41.17;23.52;;;18.20;70.60;;;;;;5068500;28;20407;-73
2023/10/03 00:52:56;;;;;;;41.80;23.48;;;18.20;70.60;;;;;;5061080;28;20892;-73
2023/10/03 00:55:26;;;;;;;40.08;22.83;;;18.20;70.40;;;;;;5063209;28;20410;-73
2023/10/03 00:58:06;;;;;;;41.40;23.58;;;18.20;69.90;;;;;;5067612;28;20506;-73
2023/10/03 01:00:54;;;;;;;39.95;22.17;;;18.20;70.40;;;;;;5067596;28;20595;-73
2023/10/03 01:03:28;;;;;;;38.92;22.58;;;18.30;69.50;;;;;;5082988;28;20464;-73
2023/10/03 01:05:54;;;;;;;38.53;21.95;;;18.20;69.20;;;;;;5068515;28;20411;-73
2023/10/03 01:08:23;;;;;;;39.95;21.90;;;18.20;68.00;;;;;;5066639;28;20460;-73
2023/10/03 01:10:50;;;;;;;38.58;22.90;;;18.20;68.20;;;;;;5068344;28;20897;-73
2023/10/03 01:13:19;;;;;;;39.80;22.27;;;18.20;67.50;;;;;;5067697;28;20423;-73
2023/10/03 01:15:49;;;;;;;39.17;22.53;;;18.20;67.50;;;;;;5067755;28;20395;-73
2023/10/03 01:18:20;;;;;;;39.00;21.97;;;18.20;67.70;;;;;;5067450;28;20483;-74
2023/10/03 01:20:51;;;;;;;39.70;22.42;;;18.10;67.10;;;;;;5083364;28;20431;-73
2023/10/03 01:23:19;;;;;;;38.80;22.80;;;18.10;66.90;;;;;;5067505;28;20403;-73
2023/10/03 01:25:45;;;;;;;38.22;22.15;;;18.10;66.60;;;;;;5068123;28;20417;-73
2023/10/03 01:28:13;;;;;;;40.57;21.60;;;18.10;66.30;;;;;;5067893;28;20411;-73
2023/10/03 01:30:43;;;;;;;40.37;22.03;;;18.10;66.70;;;;;;5067885;28;20402;-73
2023/10/03 01:33:12;;;;;;;37.60;21.45;;;18.10;66.00;;;;;;5066145;28;20413;-74
2023/10/03 01:35:38;;;;;;;38.40;22.17;;;18.10;65.60;;;;;;5057676;28;20433;-73
2023/10/03 01:38:07;;;;;;;37.30;21.83;;;18.00;65.70;;;;;;5064540;28;20469;-73
2023/10/03 01:40:33;;;;;;;36.33;21.48;;;18.00;65.30;;;;;;5066874;28;20436;-73
2023/10/03 01:42:59;;;;;;;37.43;21.93;;;18.00;65.20;;;;;;5067850;28;20495;-74
2023/10/03 01:45:27;;;;;;;41.22;22.35;;;18.00;64.90;;;;;;5067741;28;20965;-74
2023/10/03 01:47:58;;;;;;;36.92;21.00;;;17.90;64.90;;;;;;5067484;28;20423;-73
2023/10/03 01:50:26;;;;;;;37.33;21.38;;;17.90;64.90;;;;;;5067884;28;20400;-74
2023/10/03 01:52:52;;;;;;;36.22;20.73;;;17.90;65.20;;;;;;5066244;28;20414;-73
2023/10/03 01:55:18;;;;;;;38.63;20.77;;;17.80;65.20;;;;;;5067355;28;20779;-73
2023/10/03 01:57:45;;;;;;;35.40;20.73;;;17.80;64.90;;;;;;5066450;28;20411;-73
2023/10/03 02:00:25;;;;;;;36.60;19.67;;;17.80;65.50;;;;;;5067740;28;20431;-73
2023/10/03 02:03:04;;;;;;;37.30;20.80;;;17.70;65.10;;;;;;5066361;28;20769;-74
2023/10/03 02:05:33;;;;;;;37.40;20.08;;;17.80;65.20;;;;;;5058555;28;20780;-73
2023/10/03 02:08:04;;;;;;;36.90;20.10;;;17.70;65.30;;;;;;5068608;28;20404;-74
2023/10/03 02:10:32;;;;;;;36.90;20.50;;;17.70;65.30;;;;;;5071432;28;20505;-74
2023/10/03 02:12:58;;;;;;;34.20;19.92;;;17.70;65.20;;;;;;5071393;28;20400;-74
2023/10/03 02:15:27;;;;;;;34.87;19.13;;;17.70;64.70;;;;;;5071331;28;20386;-73
2023/10/03 02:17:54;;;;;;;35.28;20.20;;;17.60;64.70;;;;;;5066556;28;20491;-73
2023/10/03 02:20:25;;;;;;;33.10;18.48;;;17.60;64.90;;;;;;5069370;28;21273;-73
2023/10/03 02:22:54;;;;;;;31.98;18.88;;;17.60;64.50;;;;;;5071332;28;20437;-73
2023/10/03 02:25:22;;;;;;;33.40;19.00;;;17.60;64.40;;;;;;5067781;28;20407;-74
2023/10/03 02:27:49;;;;;;;36.80;19.85;;;17.60;64.10;;;;;;5070603;28;20423;-74
2023/10/03 02:30:19;;;;;;;32.15;18.30;;;17.60;64.40;;;;;;5070784;28;20417;-73
2023/10/03 02:32:45;;;;;;;34.22;18.75;;;17.60;64.60;;;;;;5070388;28;20411;-74
2023/10/03 02:35:13;;;;;;;35.13;18.53;;;17.60;63.90;;;;;;5069659;28;20407;-74
2023/10/03 02:37:39;;;;;;;34.10;18.27;;;17.60;64.00;;;;;;5070200;28;20471;-72
2023/10/03 02:40:07;;;;;;;32.17;17.77;;;17.50;63.60;;;;;;5070610;28;20543;-72
2023/10/03 02:42:38;;;;;;;31.98;17.98;;;17.50;62.90;;;;;;5069740;28;20403;-72
2023/10/03 02:45:05;;;;;;;32.88;18.92;;;17.50;63.10;;;;;;5070323;28;20403;-72
2023/10/03 02:47:32;;;;;;;32.42;18.05;;;17.50;63.00;;;;;;5070690;28;20426;-72
2023/10/03 02:49:58;;;;;;;31.55;18.30;;;17.50;62.70;;;;;;5070327;28;20411;-73
2023/10/03 02:52:25;;;;;;;33.30;17.00;;;17.50;62.00;;;;;;5070189;28;20399;-72
2023/10/03 02:54:51;;;;;;;31.90;18.20;;;17.50;61.80;;;;;;5069463;28;20897;-72
2023/10/03 02:57:18;;;;;;;32.65;17.50;;;17.50;61.30;;;;;;5070548;28;20400;-72
2023/10/03 02:59:44;;;;;;;30.40;17.48;;;17.50;61.20;;;;;;5069209;28;20937;-72
2023/10/03 03:02:14;;;;;;;33.75;17.95;;;17.50;61.00;;;;;;5070414;28;20400;-73
2023/10/03 03:04:41;;;;;;;33.10;17.90;;;17.50;60.50;;;;;;5055870;28;20452;-72
2023/10/03 03:07:07;;;;;;;29.85;16.20;;;17.50;60.70;;;;;;5066221;28;20504;-72
2023/10/03 03:09:36;;;;;;;33.45;17.38;;;17.50;60.20;;;;;;5070215;28;20430;-72
2023/10/03 03:12:04;;;;;;;32.78;17.90;;;17.50;59.90;;;;;;5070078;28;20404;-72
2023/10/03 03:14:31;;;;;;;32.23;17.40;;;17.60;59.60;;;;;;5066483;28;20399;-72
2023/10/03 03:16:56;;;;;;;31.13;18.08;;;17.50;58.90;;;;;;5070066;28;20412;-72
2023/10/03 03:19:23;;;;;;;30.92;17.50;;;17.50;58.80;;;;;;5059989;28;20424;-72
2023/10/03 03:21:50;;;;;;;31.73;17.58;;;17.50;58.70;;;;;;5070472;28;20400;-72
2023/10/03 03:24:33;;;;;;;33.25;18.13;;;17.50;58.60;;;;;;5060549;28;20467;-72
2023/10/03 03:26:59;;;;;;;32.92;17.65;;;17.50;58.70;;;;;;5068431;28;20416;-72
2023/10/03 03:29:35;;;;;;;31.75;17.90;;;17.50;58.80;;;;;;5069685;28;20494;-73
2023/10/03 03:32:01;;;;;;;34.20;17.60;;;17.50;58.70;;;;;;5067383;28;20458;-72
2023/10/03 03:34:28;;;;;;;30.70;16.75;;;17.50;58.60;;;;;;5069348;28;20762;-72
2023/10/03 03:36:54;;;;;;;32.85;17.25;;;17.50;58.60;;;;;;5068310;28;20408;-72
2023/10/03 03:39:20;;;;;;;35.03;17.48;;;17.50;58.40;;;;;;5068391;28;20424;-72
2023/10/03 03:41:48;;;;;;;34.00;16.92;;;17.50;58.30;;;;;;5069551;28;20403;-72
2023/10/03 03:44:14;;;;;;;31.90;17.13;;;17.50;58.20;;;;;;5069385;28;20921;-73
2023/10/03 03:46:40;;;;;;;32.45;17.13;;;17.50;58.10;;;;;;5069952;28;20424;-73
2023/10/03 03:49:10;;;;;;;31.17;16.33;;;17.50;57.80;;;;;;5069529;28;20396;-72
2023/10/03 03:51:36;;;;;;;31.58;16.60;;;17.60;57.40;;;;;;5068230;28;20395;-73
2023/10/03 03:54:07;;;;;;;32.13;16.77;;;17.60;57.00;;;;;;5069767;28;20449;-72
2023/10/03 03:56:34;;;;;;;32.23;16.37;;;17.60;56.40;;;;;;5069316;28;20917;-72
2023/10/03 03:59:00;;;;;;;31.00;16.55;;;17.60;55.50;;;;;;5069383;28;20400;-72
2023/10/03 04:01:25;;;;;;;31.93;17.37;;;17.60;55.10;;;;;;5074177;28;20489;-73
2023/10/03 04:03:51;;;;;;;34.03;16.77;;;17.60;54.40;;;;;;5066193;28;20465;-72
2023/10/03 04:06:20;;;;;;;29.92;16.23;;;17.60;54.20;;;;;;5067897;28;20940;-72
2023/10/03 04:08:46;;;;;;;32.15;16.58;;;17.60;53.80;;;;;;5069107;28;20403;-73
2023/10/03 04:11:13;;;;;;;33.53;17.27;;;17.70;54.10;;;;;;5067991;28;20404;-73
2023/10/03 04:13:49;;;;;;;31.58;16.25;;;17.70;54.00;;;;;;5068558;28;20400;-73
2023/10/03 04:16:22;;;;;;;29.58;16.33;;;17.70;53.80;;;;;;5067535;28;20992;-72
2023/10/03 04:18:50;;;;;;;32.03;16.17;;;17.70;53.60;;;;;;5065107;28;20411;-72
2023/10/03 04:21:16;;;;;;;34.85;16.58;;;17.70;53.10;;;;;;5069029;28;20889;-72
2023/10/03 04:23:44;;;;;;;32.30;16.90;;;17.70;52.80;;;;;;5068363;28;20500;-72
2023/10/03 04:26:10;;;;;;;30.75;15.65;;;17.70;52.30;;;;;;5067665;28;20412;-73
2023/10/03 04:28:37;;;;;;;32.03;15.75;;;17.80;51.80;;;;;;5069093;28;20400;-73
2023/10/03 04:31:03;;;;;;;32.35;15.70;;;17.70;51.30;;;;;;5068727;28;20766;-73
2023/10/03 04:33:29;;;;;;;28.80;15.85;;;17.70;51.10;;;;;;5068981;28;20439;-72
2023/10/03 04:35:56;;;;;;;33.50;16.10;;;17.70;51.00;;;;;;5066432;28;20471;-73
2023/10/03 04:38:22;;;;;;;31.50;15.52;;;17.70;51.10;;;;;;5067063;28;20411;-72
2023/10/03 04:40:48;;;;;;;28.63;15.25;;;17.60;50.90;;;;;;5068169;28;20436;-73
2023/10/03 04:43:14;;;;;;;29.33;15.55;;;17.70;51.10;;;;;;5068359;28;21055;-73
2023/10/03 04:45:46;;;;;;;28.70;14.80;;;17.70;50.70;;;;;;5068080;28;20412;-72
2023/10/03 04:48:12;;;;;;;29.52;15.38;;;17.70;51.00;;;;;;5067755;28;20403;-73
2023/10/03 04:50:39;;;;;;;27.63;14.63;;;17.70;50.90;;;;;;5068541;28;20411;-72
2023/10/03 04:53:09;;;;;;;28.80;15.40;;;17.70;51.00;;;;;;5063900;28;20779;-73
2023/10/03 04:55:35;;;;;;;29.02;14.48;;;17.70;51.00;;;;;;5046221;28;20770;-72
2023/10/03 04:58:00;;;;;;;29.70;14.70;;;17.80;51.20;;;;;;5068375;28;20392;-72
2023/10/03 05:00:26;;;;;;;30.17;14.90;;;17.80;51.10;;;;;;5068163;28;20526;-73
2023/10/03 05:02:53;;;;;;;30.50;14.57;;;17.90;51.20;;;;;;5068006;28;20411;-72
2023/10/03 05:05:24;;;;;;;28.60;14.63;;;17.90;51.10;;;;;;5068165;28;20396;-73
2023/10/03 05:07:52;;;;;;;27.77;13.88;;;18.00;51.80;;;;;;5068559;28;20411;-73
2023/10/03 05:10:19;;;;;;;28.17;14.35;;;18.00;52.00;;;;;;5066532;28;20404;-73
2023/10/03 05:12:46;;;;;;;31.08;14.38;;;18.10;52.00;;;;;;5067869;28;20769;-71
2023/10/03 05:15:14;;;;;;;26.88;13.80;;;18.20;51.20;;;;;;5068095;28;20474;-71
2023/10/03 05:17:43;;;;;;;28.40;14.50;;;18.30;51.30;;;;;;5066667;28;20407;-70
2023/10/03 05:20:10;;;;;;;27.73;13.70;;;18.40;50.90;;;;;;5066970;28;20428;-72
2023/10/03 05:22:36;;;;;;;28.55;13.75;;;18.50;50.90;;;;;;5067011;28;20423;-72
2023/10/03 05:25:02;;;;;;;27.63;13.87;;;18.50;50.30;;;;;;5066411;28;20416;-72
2023/10/03 05:27:29;;;;;;;26.83;13.80;;;18.60;49.70;;;;;;5048851;28;20504;-72
2023/10/03 05:29:57;;;;;;;26.17;14.10;;;18.60;49.60;;;;;;5066464;28;20396;-73
2023/10/03 05:32:26;;;;;;;29.45;15.25;;;18.60;48.70;;;;;;5067560;28;20396;-74
2023/10/03 05:34:52;;;;;;;27.03;14.10;;;18.60;48.80;;;;;;5067920;28;20404;-73
2023/10/03 05:37:17;;;;;;;31.17;13.90;;;18.60;49.10;;;;;;5066202;28;20469;-73
2023/10/03 05:39:43;;;;;;;30.27;14.37;;;18.60;49.00;;;;;;5067593;28;20415;-73
2023/10/03 05:42:10;;;;;;;26.25;13.70;;;18.60;49.30;;;;;;5059965;28;20404;-73
2023/10/03 05:44:37;;;;;;;28.58;14.20;;;18.60;49.90;;;;;;5065970;28;20483;-72
2023/10/03 05:47:03;;;;;;;28.50;14.02;;;18.60;49.90;;;;;;5067561;28;20498;-72
2023/10/03 05:49:29;;;;;;;26.65;13.65;;;18.60;50.60;;;;;;5067256;28;20479;-72
2023/10/03 05:51:57;;;;;;;24.75;13.43;;;18.60;51.80;;;;;;5067757;28;20474;-72
2023/10/03 05:54:27;;;;;;;25.35;12.63;;;18.70;51.90;;;;;;5066988;28;20439;-72
2023/10/03 05:56:52;;;;;;;25.38;13.30;;;18.70;52.30;;;;;;5067543;28;20479;-72
2023/10/03 05:59:20;;;;;;;30.37;14.00;;;18.70;53.40;;;;;;5066862;28;20511;-73
2023/10/03 06:01:47;;;;;;;30.70;14.48;;;18.70;53.40;;;;;;5066163;28;20403;-72
2023/10/03 06:04:12;;;;;;;30.45;14.25;;;18.70;54.00;;;;;;5058251;28;20440;-73
2023/10/03 06:06:38;;;;;;;28.13;13.88;;;18.70;54.60;;;;;;5066407;28;20461;-72
2023/10/03 06:09:04;;;;;;;27.47;14.13;;;18.70;56.20;;;;;;5067314;28;20790;-73
2023/10/03 06:11:30;;;;;;;28.63;13.40;;;18.80;56.40;;;;;;5065827;28;20406;-72
2023/10/03 06:13:57;;;;;;;26.58;13.38;;;18.80;57.20;;;;;;5067039;28;20403;-73
2023/10/03 06:16:24;;;;;;;29.80;13.85;;;18.80;58.40;;;;;;5067426;28;20474;-72
2023/10/03 06:18:50;;;;;;;27.08;13.27;;;18.80;58.10;;;;;;5065996;28;20483;-72
2023/10/03 06:21:16;;;;;;;28.93;14.10;;;18.80;59.40;;;;;;5067360;28;20459;-72
2023/10/03 06:23:42;;;;;;;29.10;13.13;;;18.90;61.10;;;;;;5067111;28;20791;-72
2023/10/03 06:26:08;;;;;;;26.90;13.23;;;18.90;61.20;;;;;;5065846;28;20429;-73
2023/10/03 06:28:33;;;;;;;29.95;13.93;;;18.90;60.90;;;;;;5067640;28;20435;-72
2023/10/03 06:30:59;;;;;;;29.67;13.87;;;18.90;61.60;;;;;;5067134;28;20450;-73
2023/10/03 06:33:25;;;;;;;29.63;13.70;;;18.90;61.70;;;;;;5058986;28;20440;-72
2023/10/03 06:35:51;;;;;;;28.13;12.93;;;18.90;62.10;;;;;;5066399;28;20478;-73
2023/10/03 06:38:17;;;;;;;27.90;12.80;;;19.00;63.20;;;;;;5067426;28;20399;-73
2023/10/03 06:40:43;;;;;;;28.15;12.70;;;19.00;62.20;;;;;;5059878;28;20443;-72
2023/10/03 06:43:09;;;;;;;26.17;14.18;;;19.10;61.90;;;;;;5067233;28;20434;-72
2023/10/03 06:45:35;;;;;;;30.42;13.65;;;19.10;61.40;;;;;;5065820;28;20945;-72
2023/10/03 06:48:03;;;;;;;26.08;13.00;;;19.20;61.30;;;;;;5066594;28;20400;-72
2023/10/03 06:50:30;;;;;;;27.20;12.70;;;19.20;61.10;;;;;;5062171;28;20403;-73
2023/10/03 06:52:56;;;;;;;28.75;12.68;;;19.20;61.20;;;;;;5062347;28;20399;-73
2023/10/03 06:55:21;;;;;;;27.83;12.50;;;19.20;60.20;;;;;;5083646;28;20412;-73
2023/10/03 06:57:47;;;;;;;25.73;12.25;;;19.20;59.70;;;;;;5070870;28;20502;-73
2023/10/03 07:00:14;;;;;;;25.27;13.00;;;19.20;59.80;;;;;;5068849;28;20987;-73
2023/10/03 07:02:40;;;;;;;27.77;12.80;;;19.20;59.70;;;;;;5069030;28;20805;-73
2023/10/03 07:05:07;;;;;;;26.77;12.85;;;19.20;60.40;;;;;;5060193;28;20425;-73
2023/10/03 07:07:36;;;;;;;27.42;13.80;;;19.20;61.40;;;;;;5069018;28;20404;-73
2023/10/03 07:10:04;;;;;;;25.45;12.50;;;19.10;61.60;;;;;;5070284;28;20392;-72
2023/10/03 07:12:29;;;;;;;22.57;11.43;;;19.10;61.60;;;;;;5070407;28;20503;-73
2023/10/03 07:14:55;;;;;;;26.83;12.40;;;19.10;61.80;;;;;;5069799;28;20482;-72
2023/10/03 07:17:22;;;;;;;25.00;12.60;;;19.00;63.30;;;;;;5068445;28;20697;-72
2023/10/03 07:19:48;;;;;;;25.75;10.95;;;19.00;62.30;;;;;;5069004;28;20527;-73
2023/10/03 07:22:14;;;;;;;21.70;10.30;;;19.00;62.40;;;;;;5070001;28;20412;-73
2023/10/03 07:24:40;;;;;;;22.92;10.75;;;18.90;62.10;;;;;;5070124;28;20404;-72
2023/10/03 07:27:07;;;;;;;20.30;9.95;;;18.90;62.10;;;;;;5070015;28;20966;-72
2023/10/03 07:29:36;;;;;;;21.73;9.80;;;18.90;63.10;;;;;;5069855;28;20404;-72
2023/10/03 07:32:03;;;;;;;22.08;10.15;;;18.80;62.50;;;;;;5069596;28;20438;-72
2023/10/03 07:34:29;;;;;;;19.83;9.75;;;18.80;62.30;;;;;;5069623;28;20483;-73
2023/10/03 07:36:55;;;;;;;20.43;9.70;;;18.70;63.40;;;;;;5069696;28;20388;-72
2023/10/03 07:39:21;;;;;;;20.90;9.68;;;18.60;64.40;;;;;;5069757;28;21268;-72
2023/10/03 07:41:51;;;;;;;20.00;9.60;;;18.60;65.50;;;;;;5068512;28;20415;-72
2023/10/03 07:44:18;;;;;;;21.52;10.10;;;18.50;67.90;;;;;;5068981;28;20431;-72
2023/10/03 07:46:44;;;;;;;21.27;10.07;;;18.40;69.10;;;;;;5069544;28;20515;-73
2023/10/03 07:49:10;;;;;;;22.25;9.57;;;18.40;70.30;;;;;;5068453;28;20484;-73
2023/10/03 07:51:35;;;;;;;20.37;9.10;;;18.30;72.30;;;;;;5059184;28;20431;-72
2023/10/03 07:54:03;;;;;;;21.43;8.37;;;18.20;72.20;;;;;;5069690;28;20427;-73
2023/10/03 07:56:32;;;;;;;23.40;7.28;;;18.20;71.20;;;;;;5067804;28;20829;-73
2023/10/03 07:59:01;;;;;;;21.30;7.30;;;18.10;71.10;;;;;;5068166;28;20490;-73
2023/10/03 08:01:28;;;;;;;20.45;6.40;;;18.10;70.20;;;;;;5069216;28;20412;-73
2023/10/03 08:03:54;;;;;;;19.67;6.88;;;18.10;70.10;;;;;;5069282;28;20400;-72
2023/10/03 08:06:27;;;;;;;17.77;6.00;;;18.10;70.10;;;;;;5068919;28;20388;-72
2023/10/03 08:08:59;;;;;;;20.27;5.93;;;18.00;68.60;;;;;;5069052;28;20417;-73
2023/10/03 08:11:32;;;;;;;20.17;5.30;;;18.00;68.10;;;;;;5080060;28;20400;-72
2023/10/03 08:14:13;;;;;;;13.85;4.00;;;18.00;67.70;;;;;;5063665;28;20891;-73
2023/10/03 08:16:43;;;;;;;11.77;4.10;;;17.90;66.60;;;;;;5063900;28;20905;-72
2023/10/03 08:19:24;;;;;;;12.43;3.50;;;17.80;66.30;;;;;;5067657;28;20408;-73
2023/10/03 08:21:52;;;;;;;11.23;2.80;;;17.70;66.00;;;;;;5068288;28;20412;-72
2023/10/03 08:24:24;;;;;;;13.75;2.50;;;17.70;65.80;;;;;;5068779;28;20404;-72
2023/10/03 08:26:58;;;;;;;11.77;2.10;;;17.60;65.30;;;;;;5060805;28;20404;-72
2023/10/03 08:29:25;;;;;;;12.27;2.08;;;17.50;64.00;;;;;;5068719;28;20396;-72
2023/10/03 08:31:58;;;;;;;12.73;2.10;;;17.40;63.60;;;;;;5068623;28;20462;-72
2023/10/03 08:34:28;;;;;;;9.20;1.50;;;17.20;64.10;;;;;;5068219;28;20407;-72
2023/10/03 08:36:54;;;;;;;9.00;1.80;;;17.20;64.90;;;;;;5061632;28;21473;-73
2023/10/03 08:39:23;;;;;;;9.40;1.92;;;17.10;66.30;;;;;;5067985;28;20409;-73
2023/10/03 08:41:59;;;;;;;10.55;1.60;;;17.10;66.30;;;;;;5068162;28;20739;-72
2023/10/03 08:44:31;;;;;;;8.70;1.33;;;17.10;66.10;;;;;;5068162;28;20485;-72
2023/10/03 08:46:59;;;;;;;9.27;1.50;;;17.10;66.20;;;;;;5067271;28;21010;-72
2023/10/03 08:49:38;;;;;;;11.27;1.55;;;17.10;66.30;;;;;;5067639;28;20396;-72
2023/10/03 08:52:05;;;;;;;9.48;1.42;;;17.10;65.10;;;;;;5067284;28;20419;-72
2023/10/03 08:54:36;;;;;;;11.05;1.80;;;17.10;64.70;;;;;;5068532;28;20407;-72
2023/10/03 08:57:04;;;;;;;10.50;1.20;;;17.10;64.90;;;;;;5050431;28;20412;-72
2023/10/03 08:59:30;;;;;;;8.50;1.08;;;17.20;65.20;;;;;;5063877;28;20988;-72
2023/10/03 09:02:00;;;;;;;7.47;1.10;;;17.10;63.70;;;;;;5067948;28;20486;-73
2023/10/03 09:04:37;;;;;;;8.43;1.10;;;17.10;58.70;;;;;;5067196;28;20975;-72
2023/10/03 09:07:08;;;;;;;10.57;0.90;;;17.10;58.50;;;;;;5067764;28;20434;-72
2023/10/03 09:09:41;;;;;;;6.35;0.90;;;17.00;59.40;;;;;;5068038;28;20403;-73
2023/10/03 09:12:08;;;;;;;6.43;0.88;;;16.90;60.40;;;;;;5067876;28;20486;-72
2023/10/03 09:14:36;;;;;;;7.80;0.60;;;16.80;61.20;;;;;;5068134;28;20403;-73
2023/10/03 09:17:03;;;;;;;10.75;1.10;;;16.70;62.30;;;;;;5066905;28;20975;-72
2023/10/03 09:19:45;;;;;;;9.02;0.93;;;16.60;64.10;;;;;;5067560;28;20897;-72
2023/10/03 09:22:15;;;;;;;7.38;0.63;;;16.50;65.30;;;;;;5063267;28;20396;-72
2023/10/03 09:24:46;;;;;;;6.57;0.60;;;16.40;66.00;;;;;;5067615;28;20893;-72
2023/10/03 09:27:17;;;;;;;7.00;0.90;;;16.30;64.70;;;;;;5065528;28;20403;-73
2023/10/03 09:29:45;;;;;;;5.95;0.52;;;16.30;63.60;;;;;;5064591;28;20411;-72
2023/10/03 09:32:15;;;;;;;6.50;0.60;;;16.30;63.10;;;;;;5067953;28;20857;-72
2023/10/03 09:34:42;;;;;;;6.82;0.90;;;16.30;62.90;;;;;;5066720;28;20435;-72
2023/10/03 09:37:08;;;;;;;6.13;0.57;;;16.30;61.60;;;;;;5067976;28;20399;-72
2023/10/03 09:39:50;;;;;;;9.52;1.30;;;16.30;60.40;;;;;;5067758;28;20491;-72
2023/10/03 09:42:16;;;;;;;6.30;0.60;;;16.40;59.90;;;;;;5061027;28;20913;-72
2023/10/03 09:44:48;;;;;;;5.57;0.82;;;16.30;59.00;;;;;;5063098;28;20505;-72
2023/10/03 09:47:17;;;;;;;4.18;0.60;;;16.40;58.70;;;;;;5049523;28;20414;-73
2023/10/03 09:49:43;;;;;;;3.40;0.30;;;16.40;57.30;;;;;;5066218;28;20403;-72
2023/10/03 09:52:18;;;;;;;3.95;0.30;;;16.30;52.10;;;;;;5049264;28;20415;-72
2023/10/03 09:54:44;;;;;;;4.07;0.20;;;16.30;51.10;;;;;;5065235;28;20769;-73
2023/10/03 09:57:16;;;;;;;2.73;0.20;;;16.20;50.50;;;;;;5066500;28;21451;-73
2023/10/03 09:59:49;;;;;;;3.80;0.30;;;16.10;50.30;;;;;;5067859;28;20514;-72
2023/10/03 10:02:35;;;;;;;3.00;0.50;;;16.10;49.30;;;;;;5067222;28;20403;-73
2023/10/03 10:05:19;;;;;;;3.33;0.25;;;16.10;49.90;;;;;;5076016;28;20411;-72
2023/10/03 10:08:06;;;;;;;4.60;0.40;;;16.10;50.20;;;;;;5065343;28;20399;-72
2023/10/03 10:10:35;;;;;;;6.13;0.60;;;16.00;52.50;;;;;;5067122;28;20476;-72
2023/10/03 10:13:20;;;;;;;5.30;0.60;;;15.90;55.70;;;;;;5067674;28;20964;-72
2023/10/03 10:16:07;;;;;;;5.32;0.82;;;15.80;59.80;;;;;;5064715;28;20762;-72
2023/10/03 10:18:45;;;;;;;5.63;0.70;;;15.70;61.10;;;;;;5066889;28;20434;-73
2023/10/03 10:21:36;;;;;;;3.25;0.40;;;15.70;62.70;;;;;;5067218;28;20821;-72
2023/10/03 10:24:13;;;;;;;3.25;0.30;;;15.80;61.70;;;;;;5065870;28;20495;-72
2023/10/03 10:26:39;;;;;;;2.90;0.30;;;15.80;60.20;;;;;;5067497;28;20427;-73
2023/10/03 10:29:08;;;;;;;3.38;0.40;;;15.80;58.90;;;;;;5068741;28;20395;-72
2023/10/03 10:31:44;;;;;;;3.35;0.45;;;15.80;59.30;;;;;;5069389;28;20494;-73
2023/10/03 10:34:22;;;;;;;5.28;0.60;;;15.80;59.70;;;;;;5064039;28;20503;-72
2023/10/03 10:37:12;;;;;;;7.13;0.90;;;15.70;61.20;;;;;;5070659;28;20441;-72
2023/10/03 10:42:55;;;;;;;7.07;1.00;;;15.50;61.80;;;;;;5067058;28;20406;-73
2023/10/03 10:45:21;;;;;;;5.18;0.75;;;15.40;62.30;;;;;;5059871;28;20411;-72
2023/10/03 10:47:54;;;;;;;6.33;1.00;;;15.40;62.40;;;;;;5068384;28;20487;-72
2023/10/03 10:50:26;;;;;;;3.83;0.90;;;15.40;62.70;;;;;;5070538;28;20429;-72
2023/10/03 10:52:54;;;;;;;7.40;1.27;;;15.50;62.00;;;;;;5068750;28;20407;-73
2023/10/03 10:55:23;;;;;;;7.03;1.40;;;15.50;61.80;;;;;;5069239;28;20404;-72
2023/10/03 10:58:12;;;;;;;7.35;1.75;;;15.50;57.50;;;;;;5066892;28;20479;-72
2023/10/03 11:00:38;;;;;;;6.50;1.42;;;15.50;56.10;;;;;;5070128;28;20933;-73
2023/10/03 11:03:05;;;;;;;8.75;1.77;;;15.50;55.70;;;;;;5070686;28;20411;-71
2023/10/03 11:05:45;;;;;;;8.43;1.67;;;15.50;55.80;;;;;;5069750;28;20457;-72
2023/10/03 11:08:11;;;;;;;7.18;1.83;;;15.50;55.00;;;;;;5062861;28;20396;-72
2023/10/03 11:10:56;;;;;;;5.60;1.33;;;15.50;55.40;;;;;;5070086;28;20404;-73
2023/10/03 11:13:23;;;;;;;9.90;2.10;;;15.60;56.60;;;;;;5069866;28;20415;-73
2023/10/03 11:15:54;;;;;;;7.97;1.90;;;15.80;56.10;;;;;;5070060;28;20391;-73
2023/10/03 11:18:30;;;;;;;7.50;1.87;;;15.90;52.30;;;;;;5069055;28;20404;-73
2023/10/03 11:20:57;;;;;;;9.13;2.10;;;16.00;49.80;;;;;;5069888;28;20435;-72
2023/10/03 11:23:23;;;;;;;9.13;2.17;;;16.10;45.00;;;;;;5068930;28;20812;-72
2023/10/03 11:25:54;;;;;;;8.97;2.27;;;16.10;36.30;;;;;;5069926;28;20411;-72
2023/10/03 11:28:20;;;;;;;7.53;2.10;;;16.20;35.50;;;;;;5069050;28;20400;-73
2023/10/03 11:31:05;;;;;;;10.50;2.50;;;16.20;35.80;;;;;;5069889;28;20407;-73
2023/10/03 11:33:45;;;;;;;9.60;2.10;;;16.20;33.30;;;;;;5065165;28;20422;-73
2023/10/03 11:36:12;;;;;;;8.55;2.30;;;16.30;28.30;;;;;;5067678;28;20436;-73
2023/10/03 11:38:53;;;;;;;7.50;2.10;;;16.30;24.50;;;;;;5067745;28;20501;-72
2023/10/03 11:41:37;;;;;;;9.57;1.83;;;16.40;21.50;;;;;;5058503;28;20498;-72
2023/10/03 11:44:04;;;;;;;9.23;2.15;;;16.40;11.50;;;;;;5061981;28;20423;-73
2023/10/03 11:46:44;;;;;;;8.40;1.80;;;16.40;6.50;;;;;;5065752;28;20447;-72
2023/10/03 11:49:10;;;;;;;9.50;1.50;;;16.40;1.00;;;;;;5063837;28;20445;-72
2023/10/03 11:51:38;;;;;;;7.75;1.40;;;16.50;1.00;;;;;;5069312;28;20906;-72
2023/10/03 11:54:08;;;;;;;6.03;1.40;;;16.60;1.00;;;;;;5069793;28;20533;-72
2023/10/03 11:56:41;;;;;;;6.95;1.40;;;16.80;1.00;;;;;;5068280;28;20541;-72
2023/10/03 11:59:06;;;;;;;7.10;1.50;;;17.00;1.00;;;;;;5069215;28;20407;-72
2023/10/03 12:01:33;;;;;;;8.05;1.90;;;17.00;1.00;;;;;;5069717;28;20525;-72
2023/10/03 12:03:59;;;;;;;7.78;1.60;;;17.10;1.00;;;;;;5068909;28;20453;-72
2023/10/03 12:06:25;;;;;;;9.80;2.03;;;17.10;1.00;;;;;;5062998;28;20401;-72
2023/10/03 12:08:50;;;;;;;7.03;1.80;;;17.10;1.00;;;;;;5067471;28;20396;-72
2023/10/03 12:11:16;;;;;;;7.20;1.77;;;17.00;1.00;;;;;;5069027;28;20395;-73
2023/10/03 12:13:42;;;;;;;7.38;1.70;;;17.00;1.00;;;;;;5068179;28;20504;-73
2023/10/03 12:16:07;;;;;;;8.07;2.00;;;16.90;1.00;;;;;;5069119;28;20400;-72
2023/10/03 12:18:33;;;;;;;8.00;1.80;;;16.80;1.00;;;;;;5064359;28;20764;-72
2023/10/03 12:20:59;;;;;;;5.90;1.60;;;16.80;1.00;;;;;;5067872;28;20965;-73
2023/10/03 12:23:24;;;;;;;7.95;1.65;;;16.70;1.00;;;;;;5068814;28;20387;-72
2023/10/03 12:25:50;;;;;;;8.20;1.30;;;16.60;1.00;;;;;;5067557;28;20403;-73
2023/10/03 12:28:17;;;;;;;7.70;1.97;;;16.60;1.00;;;;;;5068817;28;20967;-72
2023/10/03 12:30:43;;;;;;;8.25;1.75;;;16.60;1.00;;;;;;5069067;28;20498;-73
2023/10/03 12:33:16;;;;;;;8.88;1.92;;;16.50;1.00;;;;;;5060940;28;20561;-72
2023/10/03 12:35:41;;;;;;;5.13;1.50;;;16.40;1.00;;;;;;5067624;28;20407;-73
2023/10/03 12:38:10;;;;;;;7.50;1.60;;;16.10;1.00;;;;;;5067160;28;20402;-73
2023/10/03 12:40:36;;;;;;;8.48;1.80;;;15.80;1.00;;;;;;5059749;28;20952;-73
2023/10/03 12:43:01;;;;;;;6.00;1.57;;;15.70;1.00;;;;;;5068342;28;20392;-73
2023/10/03 12:45:28;;;;;;;5.75;1.50;;;15.50;1.00;;;;;;5068822;28;20431;-73
2023/10/03 12:47:54;;;;;;;6.00;1.50;;;15.40;1.00;;;;;;5066865;28;20905;-73
2023/10/03 12:50:26;;;;;;;7.53;1.15;;;15.40;1.00;;;;;;5068555;28;20402;-73